sensor_id;sensor_type;location;lat;lon;timestamp;P1;durP1;ratioP1;P2;durP2;ratioP2
30062;SDS011;16889;67.864;24.990;2024-03-08T00:02:52;13.63;;;1.35;;
30062;SDS011;16889;67.864;24.990;2024-03-08T00:07:39;8.73;;;1.52;;
30062;SDS011;16889;67.864;24.990;2024-03-08T00:12:26;10.75;;;1.15;;
30062;SDS011;16889;67.864;24.990;2024-03-08T00:17:12;7.00;;;0.98;;
30062;SDS011;16889;67.864;24.990;2024-03-08T00:21:58;8.80;;;1.00;;
30062;SDS011;16889;67.864;24.990;2024-03-08T00:26:44;11.88;;;1.13;;
30062;SDS011;16889;67.864;24.990;2024-03-08T00:31:30;11.93;;;1.10;;
30062;SDS011;16889;67.864;24.990;2024-03-08T00:36:17;9.60;;;1.47;;
30062;SDS011;16889;67.864;24.990;2024-03-08T00:41:03;10.75;;;1.20;;
30062;SDS011;16889;67.864;24.990;2024-03-08T00:45:49;9.98;;;1.13;;
30062;SDS011;16889;67.864;24.990;2024-03-08T00:50:35;9.20;;;1.20;;
30062;SDS011;16889;67.864;24.990;2024-03-08T00:55:21;8.82;;;1.00;;
30062;SDS011;16889;67.864;24.990;2024-03-08T01:00:07;7.35;;;0.88;;
30062;SDS011;16889;67.864;24.990;2024-03-08T01:04:57;23.67;;;2.15;;
30062;SDS011;16889;67.864;24.990;2024-03-08T01:09:43;3.83;;;0.77;;
30062;SDS011;16889;67.864;24.990;2024-03-08T01:14:29;7.15;;;1.27;;
30062;SDS011;16889;67.864;24.990;2024-03-08T01:19:16;4.83;;;1.07;;
30062;SDS011;16889;67.864;24.990;2024-03-08T01:24:02;5.07;;;1.00;;
30062;SDS011;16889;67.864;24.990;2024-03-08T01:28:49;3.60;;;0.63;;
30062;SDS011;16889;67.864;24.990;2024-03-08T01:33:35;5.18;;;1.08;;
30062;SDS011;16889;67.864;24.990;2024-03-08T01:38:21;4.53;;;0.70;;
30062;SDS011;16889;67.864;24.990;2024-03-08T01:48:02;8.65;;;0.80;;
30062;SDS011;16889;67.864;24.990;2024-03-08T01:52:49;2.40;;;0.70;;
30062;SDS011;16889;67.864;24.990;2024-03-08T01:57:35;9.02;;;1.00;;
30062;SDS011;16889;67.864;24.990;2024-03-08T02:02:23;10.88;;;1.40;;
30062;SDS011;16889;67.864;24.990;2024-03-08T02:07:09;4.45;;;0.73;;
30062;SDS011;16889;67.864;24.990;2024-03-08T02:11:56;4.50;;;0.80;;
30062;SDS011;16889;67.864;24.990;2024-03-08T02:16:42;13.60;;;1.03;;
30062;SDS011;16889;67.864;24.990;2024-03-08T02:21:28;8.13;;;1.30;;
30062;SDS011;16889;67.864;24.990;2024-03-08T02:26:16;7.03;;;0.70;;
30062;SDS011;16889;67.864;24.990;2024-03-08T02:31:02;5.43;;;0.90;;
30062;SDS011;16889;67.864;24.990;2024-03-08T02:35:53;6.65;;;0.80;;
30062;SDS011;16889;67.864;24.990;2024-03-08T02:40:39;5.60;;;0.80;;
30062;SDS011;16889;67.864;24.990;2024-03-08T02:45:25;8.93;;;0.88;;
30062;SDS011;16889;67.864;24.990;2024-03-08T02:50:11;6.57;;;0.73;;
30062;SDS011;16889;67.864;24.990;2024-03-08T02:54:59;3.92;;;0.90;;
30062;SDS011;16889;67.864;24.990;2024-03-08T02:59:45;3.08;;;0.70;;
30062;SDS011;16889;67.864;24.990;2024-03-08T03:04:31;8.57;;;0.85;;
30062;SDS011;16889;67.864;24.990;2024-03-08T03:09:18;4.35;;;0.68;;
30062;SDS011;16889;67.864;24.990;2024-03-08T03:14:08;3.53;;;0.55;;
30062;SDS011;16889;67.864;24.990;2024-03-08T03:18:54;3.67;;;1.25;;
30062;SDS011;16889;67.864;24.990;2024-03-08T03:28:28;9.68;;;0.80;;
30062;SDS011;16889;67.864;24.990;2024-03-08T03:33:13;10.20;;;0.93;;
30062;SDS011;16889;67.864;24.990;2024-03-08T03:38:01;4.03;;;0.57;;
30062;SDS011;16889;67.864;24.990;2024-03-08T03:42:51;7.57;;;0.60;;
30062;SDS011;16889;67.864;24.990;2024-03-08T03:47:37;9.35;;;0.93;;
30062;SDS011;16889;67.864;24.990;2024-03-08T03:52:23;1.83;;;0.50;;
30062;SDS011;16889;67.864;24.990;2024-03-08T03:57:09;18.00;;;1.42;;
30062;SDS011;16889;67.864;24.990;2024-03-08T04:01:55;3.08;;;0.40;;
30062;SDS011;16889;67.864;24.990;2024-03-08T04:06:41;2.45;;;0.70;;
30062;SDS011;16889;67.864;24.990;2024-03-08T04:11:27;4.35;;;0.60;;
30062;SDS011;16889;67.864;24.990;2024-03-08T04:16:13;3.95;;;0.80;;
30062;SDS011;16889;67.864;24.990;2024-03-08T04:20:59;4.80;;;0.77;;
30062;SDS011;16889;67.864;24.990;2024-03-08T04:25:48;1.88;;;0.70;;
30062;SDS011;16889;67.864;24.990;2024-03-08T04:30:34;5.15;;;0.70;;
30062;SDS011;16889;67.864;24.990;2024-03-08T04:35:22;7.15;;;0.55;;
30062;SDS011;16889;67.864;24.990;2024-03-08T04:40:08;4.97;;;0.50;;
30062;SDS011;16889;67.864;24.990;2024-03-08T04:44:54;2.78;;;0.50;;
30062;SDS011;16889;67.864;24.990;2024-03-08T04:49:40;5.40;;;0.60;;
30062;SDS011;16889;67.864;24.990;2024-03-08T04:54:26;2.08;;;0.43;;
30062;SDS011;16889;67.864;24.990;2024-03-08T04:59:12;1.52;;;0.40;;
30062;SDS011;16889;67.864;24.990;2024-03-08T05:03:58;4.40;;;0.70;;
30062;SDS011;16889;67.864;24.990;2024-03-08T05:08:44;3.30;;;0.70;;
30062;SDS011;16889;67.864;24.990;2024-03-08T05:13:31;7.00;;;0.50;;
30062;SDS011;16889;67.864;24.990;2024-03-08T05:18:17;5.70;;;0.50;;
30062;SDS011;16889;67.864;24.990;2024-03-08T05:23:03;4.60;;;0.50;;
30062;SDS011;16889;67.864;24.990;2024-03-08T05:27:50;2.37;;;0.70;;
30062;SDS011;16889;67.864;24.990;2024-03-08T05:32:36;5.60;;;0.75;;
30062;SDS011;16889;67.864;24.990;2024-03-08T05:37:22;4.03;;;0.50;;
30062;SDS011;16889;67.864;24.990;2024-03-08T05:42:08;3.90;;;0.60;;
30062;SDS011;16889;67.864;24.990;2024-03-08T05:46:54;3.53;;;0.80;;
30062;SDS011;16889;67.864;24.990;2024-03-08T05:51:41;5.63;;;0.70;;
30062;SDS011;16889;67.864;24.990;2024-03-08T05:56:27;1.67;;;0.57;;
30062;SDS011;16889;67.864;24.990;2024-03-08T06:01:14;1.30;;;0.40;;
30062;SDS011;16889;67.864;24.990;2024-03-08T06:06:00;3.78;;;0.77;;
30062;SDS011;16889;67.864;24.990;2024-03-08T06:10:47;2.53;;;0.50;;
30062;SDS011;16889;67.864;24.990;2024-03-08T06:15:37;4.50;;;0.70;;
30062;SDS011;16889;67.864;24.990;2024-03-08T06:20:23;4.35;;;0.50;;
30062;SDS011;16889;67.864;24.990;2024-03-08T06:25:11;3.80;;;0.55;;
30062;SDS011;16889;67.864;24.990;2024-03-08T06:30:01;5.45;;;0.60;;
30062;SDS011;16889;67.864;24.990;2024-03-08T06:34:47;4.30;;;0.60;;
30062;SDS011;16889;67.864;24.990;2024-03-08T06:39:35;2.05;;;0.50;;
30062;SDS011;16889;67.864;24.990;2024-03-08T06:44:21;4.85;;;0.77;;
30062;SDS011;16889;67.864;24.990;2024-03-08T06:49:07;2.50;;;0.50;;
30062;SDS011;16889;67.864;24.990;2024-03-08T06:53:54;5.50;;;0.80;;
30062;SDS011;16889;67.864;24.990;2024-03-08T06:58:40;2.47;;;0.77;;
30062;SDS011;16889;67.864;24.990;2024-03-08T07:03:26;4.00;;;0.70;;
30062;SDS011;16889;67.864;24.990;2024-03-08T07:08:13;3.05;;;0.50;;
30062;SDS011;16889;67.864;24.990;2024-03-08T07:13:00;4.20;;;0.60;;
30062;SDS011;16889;67.864;24.990;2024-03-08T07:17:49;3.70;;;0.55;;
30062;SDS011;16889;67.864;24.990;2024-03-08T07:22:37;5.72;;;0.50;;
30062;SDS011;16889;67.864;24.990;2024-03-08T07:27:24;5.03;;;0.73;;
30062;SDS011;16889;67.864;24.990;2024-03-08T07:32:10;1.50;;;0.40;;
30062;SDS011;16889;67.864;24.990;2024-03-08T07:37:09;5.90;;;0.60;;
30062;SDS011;16889;67.864;24.990;2024-03-08T07:41:56;2.07;;;0.60;;
30062;SDS011;16889;67.864;24.990;2024-03-08T07:46:42;5.97;;;0.93;;
30062;SDS011;16889;67.864;24.990;2024-03-08T07:51:28;1.98;;;0.40;;
30062;SDS011;16889;67.864;24.990;2024-03-08T07:56:14;2.33;;;0.40;;
30062;SDS011;16889;67.864;24.990;2024-03-08T08:01:01;3.72;;;0.70;;
30062;SDS011;16889;67.864;24.990;2024-03-08T08:05:47;5.90;;;0.60;;
30062;SDS011;16889;67.864;24.990;2024-03-08T08:10:34;2.90;;;0.50;;
30062;SDS011;16889;67.864;24.990;2024-03-08T08:15:20;7.43;;;0.80;;
30062;SDS011;16889;67.864;24.990;2024-03-08T08:20:06;6.75;;;0.73;;
30062;SDS011;16889;67.864;24.990;2024-03-08T08:24:53;7.68;;;0.82;;
30062;SDS011;16889;67.864;24.990;2024-03-08T08:29:39;4.13;;;0.60;;
30062;SDS011;16889;67.864;24.990;2024-03-08T08:34:25;4.43;;;0.60;;
30062;SDS011;16889;67.864;24.990;2024-03-08T08:39:11;2.83;;;0.43;;
30062;SDS011;16889;67.864;24.990;2024-03-08T08:43:58;2.87;;;0.60;;
30062;SDS011;16889;67.864;24.990;2024-03-08T08:48:45;2.20;;;0.40;;
30062;SDS011;16889;67.864;24.990;2024-03-08T08:53:31;1.83;;;0.40;;
30062;SDS011;16889;67.864;24.990;2024-03-08T08:58:17;4.70;;;0.63;;
30062;SDS011;16889;67.864;24.990;2024-03-08T09:03:03;1.85;;;0.32;;
30062;SDS011;16889;67.864;24.990;2024-03-08T09:07:51;6.57;;;0.57;;
30062;SDS011;16889;67.864;24.990;2024-03-08T09:12:38;3.70;;;0.40;;
30062;SDS011;16889;67.864;24.990;2024-03-08T09:17:24;1.83;;;0.57;;
30062;SDS011;16889;67.864;24.990;2024-03-08T09:22:10;4.22;;;0.57;;
30062;SDS011;16889;67.864;24.990;2024-03-08T09:26:56;4.22;;;0.50;;
30062;SDS011;16889;67.864;24.990;2024-03-08T09:31:43;3.77;;;0.43;;
30062;SDS011;16889;67.864;24.990;2024-03-08T09:36:31;2.20;;;0.45;;
30062;SDS011;16889;67.864;24.990;2024-03-08T09:41:17;4.63;;;0.45;;
30062;SDS011;16889;67.864;24.990;2024-03-08T09:46:03;2.35;;;0.47;;
30062;SDS011;16889;67.864;24.990;2024-03-08T09:50:53;3.22;;;0.55;;
30062;SDS011;16889;67.864;24.990;2024-03-08T09:55:40;0.73;;;0.30;;
30062;SDS011;16889;67.864;24.990;2024-03-08T10:00:29;1.35;;;0.30;;
30062;SDS011;16889;67.864;24.990;2024-03-08T10:05:15;0.63;;;0.40;;
30062;SDS011;16889;67.864;24.990;2024-03-08T10:14:49;2.58;;;0.40;;
30062;SDS011;16889;67.864;24.990;2024-03-08T10:19:35;1.02;;;0.30;;
30062;SDS011;16889;67.864;24.990;2024-03-08T10:24:24;2.28;;;0.38;;
30062;SDS011;16889;67.864;24.990;2024-03-08T10:29:11;1.95;;;0.40;;
30062;SDS011;16889;67.864;24.990;2024-03-08T10:34:01;2.50;;;0.40;;
30062;SDS011;16889;67.864;24.990;2024-03-08T10:38:47;1.08;;;0.30;;
30062;SDS011;16889;67.864;24.990;2024-03-08T10:48:53;1.02;;;0.30;;
30062;SDS011;16889;67.864;24.990;2024-03-08T10:53:43;1.27;;;0.43;;
30062;SDS011;16889;67.864;24.990;2024-03-08T10:58:31;1.35;;;0.40;;
30062;SDS011;16889;67.864;24.990;2024-03-08T11:08:30;2.60;;;0.70;;
30062;SDS011;16889;67.864;24.990;2024-03-08T11:18:21;3.20;;;0.60;;
30062;SDS011;16889;67.864;24.990;2024-03-08T11:23:07;1.67;;;0.30;;
30062;SDS011;16889;67.864;24.990;2024-03-08T11:28:06;1.13;;;0.43;;
30062;SDS011;16889;67.864;24.990;2024-03-08T11:32:53;1.35;;;0.38;;
30062;SDS011;16889;67.864;24.990;2024-03-08T11:37:39;4.75;;;1.02;;
30062;SDS011;16889;67.864;24.990;2024-03-08T11:42:25;3.25;;;0.73;;
30062;SDS011;16889;67.864;24.990;2024-03-08T11:47:12;3.45;;;0.82;;
30062;SDS011;16889;67.864;24.990;2024-03-08T11:51:59;1.77;;;0.60;;
30062;SDS011;16889;67.864;24.990;2024-03-08T11:56:45;1.42;;;0.50;;
30062;SDS011;16889;67.864;24.990;2024-03-08T12:01:35;4.90;;;0.63;;
30062;SDS011;16889;67.864;24.990;2024-03-08T12:06:21;6.57;;;0.90;;
30062;SDS011;16889;67.864;24.990;2024-03-08T12:11:07;3.75;;;0.75;;
30062;SDS011;16889;67.864;24.990;2024-03-08T12:15:58;4.32;;;0.80;;
30062;SDS011;16889;67.864;24.990;2024-03-08T12:20:44;6.32;;;1.00;;
30062;SDS011;16889;67.864;24.990;2024-03-08T12:25:35;5.55;;;0.90;;
30062;SDS011;16889;67.864;24.990;2024-03-08T12:30:24;6.88;;;1.05;;
30062;SDS011;16889;67.864;24.990;2024-03-08T12:35:14;3.63;;;0.55;;
30062;SDS011;16889;67.864;24.990;2024-03-08T12:40:00;5.10;;;0.60;;
30062;SDS011;16889;67.864;24.990;2024-03-08T12:44:46;3.35;;;0.70;;
30062;SDS011;16889;67.864;24.990;2024-03-08T12:49:31;4.78;;;0.80;;
30062;SDS011;16889;67.864;24.990;2024-03-08T12:54:18;5.25;;;0.60;;
30062;SDS011;16889;67.864;24.990;2024-03-08T12:59:08;5.30;;;0.80;;
30062;SDS011;16889;67.864;24.990;2024-03-08T13:03:55;12.20;;;0.77;;
30062;SDS011;16889;67.864;24.990;2024-03-08T13:08:41;6.60;;;0.93;;
30062;SDS011;16889;67.864;24.990;2024-03-08T13:13:29;2.33;;;0.70;;
30062;SDS011;16889;67.864;24.990;2024-03-08T13:18:15;7.35;;;0.75;;
30062;SDS011;16889;67.864;24.990;2024-03-08T13:23:01;2.72;;;0.80;;
30062;SDS011;16889;67.864;24.990;2024-03-08T13:27:47;4.45;;;0.90;;
30062;SDS011;16889;67.864;24.990;2024-03-08T13:32:34;6.20;;;0.90;;
30062;SDS011;16889;67.864;24.990;2024-03-08T13:37:20;7.70;;;0.82;;
30062;SDS011;16889;67.864;24.990;2024-03-08T13:42:07;5.47;;;0.73;;
30062;SDS011;16889;67.864;24.990;2024-03-08T13:46:58;5.28;;;0.80;;
30062;SDS011;16889;67.864;24.990;2024-03-08T13:51:44;5.15;;;0.82;;
30062;SDS011;16889;67.864;24.990;2024-03-08T13:56:30;7.15;;;0.82;;
30062;SDS011;16889;67.864;24.990;2024-03-08T14:01:16;7.95;;;0.80;;
30062;SDS011;16889;67.864;24.990;2024-03-08T14:06:02;6.07;;;0.80;;
30062;SDS011;16889;67.864;24.990;2024-03-08T14:10:48;4.38;;;0.90;;
30062;SDS011;16889;67.864;24.990;2024-03-08T14:15:36;6.70;;;0.80;;
30062;SDS011;16889;67.864;24.990;2024-03-08T14:20:27;5.15;;;0.65;;
30062;SDS011;16889;67.864;24.990;2024-03-08T14:25:13;3.70;;;0.63;;
30062;SDS011;16889;67.864;24.990;2024-03-08T14:30:02;3.88;;;0.85;;
30062;SDS011;16889;67.864;24.990;2024-03-08T14:34:48;2.95;;;0.70;;
30062;SDS011;16889;67.864;24.990;2024-03-08T14:39:34;2.75;;;0.70;;
30062;SDS011;16889;67.864;24.990;2024-03-08T14:44:20;5.07;;;0.85;;
30062;SDS011;16889;67.864;24.990;2024-03-08T14:49:16;6.05;;;1.05;;
30062;SDS011;16889;67.864;24.990;2024-03-08T14:54:04;5.47;;;1.00;;
30062;SDS011;16889;67.864;24.990;2024-03-08T14:58:51;11.30;;;1.15;;
30062;SDS011;16889;67.864;24.990;2024-03-08T15:03:37;5.22;;;1.10;;
30062;SDS011;16889;67.864;24.990;2024-03-08T15:08:23;5.32;;;1.00;;
30062;SDS011;16889;67.864;24.990;2024-03-08T15:13:10;6.88;;;1.08;;
30062;SDS011;16889;67.864;24.990;2024-03-08T15:18:07;7.67;;;1.27;;
30062;SDS011;16889;67.864;24.990;2024-03-08T15:22:55;6.30;;;1.25;;
30062;SDS011;16889;67.864;24.990;2024-03-08T15:27:43;6.20;;;0.88;;
30062;SDS011;16889;67.864;24.990;2024-03-08T15:32:29;5.50;;;1.55;;
30062;SDS011;16889;67.864;24.990;2024-03-08T15:37:17;9.70;;;1.48;;
30062;SDS011;16889;67.864;24.990;2024-03-08T15:42:03;5.35;;;1.38;;
30062;SDS011;16889;67.864;24.990;2024-03-08T15:46:50;4.30;;;1.02;;
30062;SDS011;16889;67.864;24.990;2024-03-08T15:51:36;7.32;;;1.42;;
30062;SDS011;16889;67.864;24.990;2024-03-08T15:56:22;5.78;;;1.15;;
30062;SDS011;16889;67.864;24.990;2024-03-08T16:01:09;6.80;;;1.88;;
30062;SDS011;16889;67.864;24.990;2024-03-08T16:05:57;5.03;;;1.42;;
30062;SDS011;16889;67.864;24.990;2024-03-08T16:10:43;5.95;;;1.00;;
30062;SDS011;16889;67.864;24.990;2024-03-08T16:15:39;5.10;;;0.80;;
30062;SDS011;16889;67.864;24.990;2024-03-08T16:20:25;4.38;;;0.95;;
30062;SDS011;16889;67.864;24.990;2024-03-08T16:25:12;9.45;;;1.73;;
30062;SDS011;16889;67.864;24.990;2024-03-08T16:29:58;4.07;;;1.42;;
30062;SDS011;16889;67.864;24.990;2024-03-08T16:34:44;11.82;;;1.73;;
30062;SDS011;16889;67.864;24.990;2024-03-08T16:39:30;6.95;;;1.13;;
30062;SDS011;16889;67.864;24.990;2024-03-08T16:44:16;7.70;;;1.42;;
30062;SDS011;16889;67.864;24.990;2024-03-08T16:49:04;6.63;;;1.10;;
30062;SDS011;16889;67.864;24.990;2024-03-08T16:53:50;7.35;;;1.30;;
30062;SDS011;16889;67.864;24.990;2024-03-08T16:58:37;6.28;;;1.02;;
30062;SDS011;16889;67.864;24.990;2024-03-08T17:03:26;5.30;;;1.42;;
30062;SDS011;16889;67.864;24.990;2024-03-08T17:08:12;2.85;;;1.20;;
30062;SDS011;16889;67.864;24.990;2024-03-08T17:13:00;7.88;;;1.73;;
30062;SDS011;16889;67.864;24.990;2024-03-08T17:17:47;8.07;;;1.67;;
30062;SDS011;16889;67.864;24.990;2024-03-08T17:22:34;24.30;;;2.15;;
30062;SDS011;16889;67.864;24.990;2024-03-08T17:27:20;10.60;;;1.58;;
30062;SDS011;16889;67.864;24.990;2024-03-08T17:32:09;6.47;;;1.08;;
30062;SDS011;16889;67.864;24.990;2024-03-08T17:36:55;9.30;;;1.13;;
30062;SDS011;16889;67.864;24.990;2024-03-08T17:41:43;5.55;;;1.30;;
30062;SDS011;16889;67.864;24.990;2024-03-08T17:46:33;5.78;;;1.48;;
30062;SDS011;16889;67.864;24.990;2024-03-08T17:51:19;19.40;;;1.65;;
30062;SDS011;16889;67.864;24.990;2024-03-08T17:56:05;13.23;;;1.40;;
30062;SDS011;16889;67.864;24.990;2024-03-08T18:00:51;9.95;;;1.33;;
30062;SDS011;16889;67.864;24.990;2024-03-08T18:05:38;2.63;;;0.90;;
30062;SDS011;16889;67.864;24.990;2024-03-08T18:10:27;16.05;;;1.30;;
30062;SDS011;16889;67.864;24.990;2024-03-08T18:15:15;8.85;;;1.33;;
30062;SDS011;16889;67.864;24.990;2024-03-08T18:20:10;5.80;;;1.40;;
30062;SDS011;16889;67.864;24.990;2024-03-08T18:24:59;6.50;;;1.40;;
30062;SDS011;16889;67.864;24.990;2024-03-08T18:29:45;5.07;;;1.05;;
30062;SDS011;16889;67.864;24.990;2024-03-08T18:34:31;8.30;;;1.63;;
30062;SDS011;16889;67.864;24.990;2024-03-08T18:39:17;7.90;;;1.00;;
30062;SDS011;16889;67.864;24.990;2024-03-08T18:44:04;5.90;;;0.98;;
30062;SDS011;16889;67.864;24.990;2024-03-08T18:48:50;6.43;;;1.08;;
30062;SDS011;16889;67.864;24.990;2024-03-08T18:53:36;3.53;;;1.10;;
30062;SDS011;16889;67.864;24.990;2024-03-08T18:58:26;8.18;;;1.10;;
30062;SDS011;16889;67.864;24.990;2024-03-08T19:03:16;5.25;;;1.10;;
30062;SDS011;16889;67.864;24.990;2024-03-08T19:08:02;8.30;;;1.38;;
30062;SDS011;16889;67.864;24.990;2024-03-08T19:12:53;9.98;;;1.15;;
30062;SDS011;16889;67.864;24.990;2024-03-08T19:17:47;7.50;;;1.15;;
30062;SDS011;16889;67.864;24.990;2024-03-08T19:22:38;11.35;;;1.27;;
30062;SDS011;16889;67.864;24.990;2024-03-08T19:27:26;4.10;;;1.27;;
30062;SDS011;16889;67.864;24.990;2024-03-08T19:32:11;4.70;;;0.98;;
30062;SDS011;16889;67.864;24.990;2024-03-08T19:36:57;4.00;;;1.00;;
30062;SDS011;16889;67.864;24.990;2024-03-08T19:41:43;3.83;;;1.20;;
30062;SDS011;16889;67.864;24.990;2024-03-08T19:46:29;6.63;;;1.40;;
30062;SDS011;16889;67.864;24.990;2024-03-08T19:51:23;4.82;;;1.10;;
30062;SDS011;16889;67.864;24.990;2024-03-08T19:56:09;6.47;;;1.90;;
30062;SDS011;16889;67.864;24.990;2024-03-08T20:00:54;4.95;;;1.10;;
30062;SDS011;16889;67.864;24.990;2024-03-08T20:05:40;9.73;;;1.50;;
30062;SDS011;16889;67.864;24.990;2024-03-08T20:10:29;12.10;;;1.55;;
30062;SDS011;16889;67.864;24.990;2024-03-08T20:15:16;7.32;;;1.10;;
30062;SDS011;16889;67.864;24.990;2024-03-08T20:20:06;10.55;;;0.95;;
30062;SDS011;16889;67.864;24.990;2024-03-08T20:25:00;4.63;;;1.08;;
30062;SDS011;16889;67.864;24.990;2024-03-08T20:29:46;9.13;;;1.20;;
30062;SDS011;16889;67.864;24.990;2024-03-08T20:34:31;5.32;;;0.95;;
30062;SDS011;16889;67.864;24.990;2024-03-08T20:39:19;5.68;;;1.10;;
30062;SDS011;16889;67.864;24.990;2024-03-08T20:44:06;3.65;;;0.98;;
30062;SDS011;16889;67.864;24.990;2024-03-08T20:48:52;5.10;;;1.10;;
30062;SDS011;16889;67.864;24.990;2024-03-08T20:53:39;5.38;;;1.05;;
30062;SDS011;16889;67.864;24.990;2024-03-08T20:58:28;11.82;;;1.25;;
30062;SDS011;16889;67.864;24.990;2024-03-08T21:03:14;8.27;;;0.80;;
30062;SDS011;16889;67.864;24.990;2024-03-08T21:08:03;7.22;;;1.27;;
30062;SDS011;16889;67.864;24.990;2024-03-08T21:12:53;7.43;;;1.15;;
30062;SDS011;16889;67.864;24.990;2024-03-08T21:17:39;6.78;;;1.40;;
30062;SDS011;16889;67.864;24.990;2024-03-08T21:22:26;4.55;;;0.93;;
30062;SDS011;16889;67.864;24.990;2024-03-08T21:27:12;10.98;;;1.40;;
30062;SDS011;16889;67.864;24.990;2024-03-08T21:32:00;7.22;;;1.42;;
30062;SDS011;16889;67.864;24.990;2024-03-08T21:36:51;5.35;;;1.10;;
30062;SDS011;16889;67.864;24.990;2024-03-08T21:41:37;2.95;;;0.93;;
30062;SDS011;16889;67.864;24.990;2024-03-08T21:46:25;8.68;;;1.42;;
30062;SDS011;16889;67.864;24.990;2024-03-08T21:51:10;7.18;;;1.30;;
30062;SDS011;16889;67.864;24.990;2024-03-08T21:55:58;7.88;;;1.10;;
30062;SDS011;16889;67.864;24.990;2024-03-08T22:00:44;7.20;;;1.20;;
30062;SDS011;16889;67.864;24.990;2024-03-08T22:05:32;5.47;;;1.38;;
30062;SDS011;16889;67.864;24.990;2024-03-08T22:10:19;9.48;;;1.70;;
30062;SDS011;16889;67.864;24.990;2024-03-08T22:19:54;5.95;;;1.13;;
30062;SDS011;16889;67.864;24.990;2024-03-08T22:24:40;6.53;;;1.40;;
30062;SDS011;16889;67.864;24.990;2024-03-08T22:29:26;6.65;;;1.33;;
30062;SDS011;16889;67.864;24.990;2024-03-08T22:34:12;6.20;;;1.48;;
30062;SDS011;16889;67.864;24.990;2024-03-08T22:38:58;5.82;;;1.27;;
30062;SDS011;16889;67.864;24.990;2024-03-08T22:43:44;5.28;;;1.27;;
30062;SDS011;16889;67.864;24.990;2024-03-08T22:48:31;6.20;;;1.10;;
30062;SDS011;16889;67.864;24.990;2024-03-08T22:53:17;7.25;;;1.67;;
30062;SDS011;16889;67.864;24.990;2024-03-08T22:58:03;7.53;;;1.58;;
30062;SDS011;16889;67.864;24.990;2024-03-08T23:02:49;6.18;;;1.48;;
30062;SDS011;16889;67.864;24.990;2024-03-08T23:07:36;6.70;;;1.02;;
30062;SDS011;16889;67.864;24.990;2024-03-08T23:12:24;5.35;;;1.00;;
30062;SDS011;16889;67.864;24.990;2024-03-08T23:17:11;3.70;;;1.23;;
30062;SDS011;16889;67.864;24.990;2024-03-08T23:21:58;10.50;;;1.65;;
30062;SDS011;16889;67.864;24.990;2024-03-08T23:26:46;6.60;;;1.40;;
30062;SDS011;16889;67.864;24.990;2024-03-08T23:31:31;6.00;;;1.50;;
30062;SDS011;16889;67.864;24.990;2024-03-08T23:36:19;3.38;;;1.50;;
30062;SDS011;16889;67.864;24.990;2024-03-08T23:41:05;5.50;;;1.60;;
30062;SDS011;16889;67.864;24.990;2024-03-08T23:45:51;6.75;;;1.42;;
30062;SDS011;16889;67.864;24.990;2024-03-08T23:50:38;4.28;;;1.30;;
30062;SDS011;16889;67.864;24.990;2024-03-08T23:55:24;3.70;;;1.40;;
